Sea Thames — V2BV1 — position and weather

sailwx.info

Track history (hours):
 
Tides and Currents Weather Stations Pressure Air Temp Water Temp Dewpoint Dewpoint Depression Visibility Wind Speed Wind Dir Waves Ship Positions

Sea Thames

Last reported at 2018-Feb-25 11:48 UTC. Time now 2018-Feb-25 12:02 UTC.
Position N 51°30' E 000°58'.

Length 87 m; draft 3.2 m.

Type: Ship. MMSI: 304933000.

Date/timePositionNaut miles runAvg speedWind from/ knotsBaromVisibWave heightAir tempDewpointWater temp
2018-Feb-25 11:48N 51°30' E 000°58'0 0.0
2018-Feb-25 05:49N 51°30' E 000°58'0 0.0
2018-Feb-25 05:19N 51°30' E 000°58'0 0.0
2018-Feb-25 04:54N 51°30' E 000°58'0 0.0
2018-Feb-25 04:24N 51°30' E 000°58'0 0.0
2018-Feb-25 03:10N 51°30' E 000°58'0 0.1
2018-Feb-25 02:58N 51°30' E 000°58'0 0.0
2018-Feb-25 02:25N 51°30' E 000°58'0 0.0
2018-Feb-25 01:19N 51°30' E 000°58'0 0.1
2018-Feb-25 00:52N 51°30' E 000°58'0 0.0
2018-Feb-25 00:23N 51°30' E 000°58'0 0.1
2018-Feb-24 22:33N 51°30' E 000°58'0 0.1
2018-Feb-24 19:18N 51°30' E 000°58'0 0.1
2018-Feb-24 18:54N 51°30' E 000°58'0 0.0
2018-Feb-24 18:16N 51°30' E 000°58'0 0.0
2018-Feb-24 17:49N 51°30' E 000°58'0 0.0
2018-Feb-24 17:22N 51°30' E 000°58'0 0.0
2018-Feb-24 16:58N 51°30' E 000°58'0 0.0
2018-Feb-24 16:29N 51°30' E 000°58'0 0.0
2018-Feb-24 15:59N 51°30' E 000°58'0 0.0
2018-Feb-24 15:29N 51°30' E 000°58'0 0.0
2018-Feb-24 14:54N 51°30' E 000°58'0 0.0
2018-Feb-24 14:27N 51°30' E 000°58'0 0.0
2018-Feb-24 13:43N 51°30' E 000°58'0 0.1
2018-Feb-24 13:23N 51°30' E 000°58'0 0.1
2018-Feb-24 12:54N 51°30' E 000°58'0 0.0
2018-Feb-24 12:28N 51°30' E 000°58'0 0.0
2018-Feb-24 11:31N 51°30' E 000°58'0 0.1
2018-Feb-24 10:08N 51°30' E 000°58'0 0.0
2018-Feb-24 09:46N 51°30' E 000°58'0 0.0
2018-Feb-24 09:22N 51°30' E 000°58'0 0.2
2018-Feb-24 09:00N 51°30' E 000°58'2 3.3
2018-Feb-24 08:30N 51°29' E 001°00'4 7.3
2018-Feb-24 07:59N 51°30' E 001°06'4 7.4
2018-Feb-24 07:30N 51°29' E 001°12'4 8.1
2018-Feb-24 07:00N 51°29' E 001°18'4 8.5
2018-Feb-24 06:30N 51°28' E 001°25'4 8.3
2018-Feb-24 06:00N 51°25' E 001°30'5 9.2
2018-Feb-24 05:30N 51°21' E 001°35'4 9.0
2018-Feb-24 05:00N 51°17' E 001°37'4 8.2
2018-Feb-24 04:30N 51°13' E 001°38'4 7.3
2018-Feb-24 04:00N 51°10' E 001°40'3 6.7
2018-Feb-24 03:30N 51°06' E 001°40'3 6.0
2018-Feb-24 03:00N 51°04' E 001°38'3 6.1
2018-Feb-24 02:28N 51°01' E 001°36'5 5.6
2018-Feb-24 01:33N 50°56' E 001°32'0 5.9
2018-Feb-24 01:30N 50°56' E 001°31'3 5.1
2018-Feb-24 00:49N 50°53' E 001°29'36 0.8
2018-Feb-22 04:32N 50°34' E 000°40'1 8.0
2018-Feb-22 04:24N 50°35' E 000°41'3 8.7
2018-Feb-22 04:01N 50°37' E 000°45'4 8.4
2018-Feb-22 03:30N 50°40' E 000°50'4 8.1
2018-Feb-22 03:00N 50°43' E 000°56'17 8.1
2018-Feb-22 00:51N 50°54' E 001°17'4 9.7
2018-Feb-22 00:27N 50°57' E 001°21'510.9
2018-Feb-22 00:00N 51°00' E 001°26'611.6
2018-Feb-21 23:31N 51°04' E 001°33'612.2
2018-Feb-21 23:00N 51°09' E 001°39'611.5
2018-Feb-21 22:30N 51°13' E 001°45'510.9
2018-Feb-21 22:00N 51°18' E 001°50'510.1
2018-Feb-21 21:31N 51°22' E 001°54'5 9.4
2018-Feb-21 21:00N 51°26' E 001°58'5 8.9
2018-Feb-21 20:29N 51°30' E 002°03'178 8.4
2018-Feb-20 23:20N 53°39' E 005°23'3 7.8
2018-Feb-20 22:59N 53°40' E 005°27'50 7.1
2018-Feb-20 16:00N 53°29' E 006°49'610.9
2018-Feb-20 15:29N 53°25' E 006°56'5 9.9
2018-Feb-20 15:01N 53°21' E 006°59'4 7.2
2018-Feb-20 14:30N 53°20' E 007°05'4 7.6
2018-Feb-20 14:00N 53°20' E 007°11'0 0.5
2018-Feb-20 13:26N 53°20' E 007°11'0 0.7
2018-Feb-20 13:00N 53°20' E 007°12'0 0.0
2018-Feb-20 11:48N 53°20' E 007°12'0 0.0
2018-Feb-20 10:44N 53°20' E 007°12'0 0.0
2018-Feb-20 10:26N 53°20' E 007°12'0 0.0
2018-Feb-20 07:51N 53°20' E 007°12'0 0.0
2018-Feb-20 07:29N 53°20' E 007°12'0 0.0
2018-Feb-20 05:44N 53°20' E 007°12'0 0.0
2018-Feb-20 04:49N 53°20' E 007°12'0 0.0
2018-Feb-20 03:52N 53°20' E 007°12'0 0.0
2018-Feb-20 01:57N 53°20' E 007°12'0 0.0
2018-Feb-20 00:50N 53°20' E 007°12'0 0.0
2018-Feb-20 00:24N 53°20' E 007°12'0 0.0
2018-Feb-19 23:50N 53°20' E 007°12'0 0.0
2018-Feb-19 23:20N 53°20' E 007°12'0 0.0
2018-Feb-19 19:43N 53°20' E 007°12'0 0.0
2018-Feb-19 19:13N 53°20' E 007°12'0 0.0
2018-Feb-19 17:31N 53°20' E 007°12'0 0.0
2018-Feb-19 17:18N 53°20' E 007°12'0 0.0
2018-Feb-19 17:00N 53°20' E 007°12'0 0.0
2018-Feb-19 15:36N 53°20' E 007°12'0 0.0
2018-Feb-19 15:30N 53°20' E 007°12'  
2018-Feb-17 07:50N 53°21' E 007°12'1 1.3
2018-Feb-17 06:57N 53°20' E 007°11'3 5.8
2018-Feb-17 06:30N 53°20' E 007°06'4 7.0
2018-Feb-17 06:00N 53°20' E 007°01'4 7.6
2018-Feb-17 05:30N 53°23' E 006°58'5 7.5
2018-Feb-17 04:54N 53°27' E 006°53'3 7.3
2018-Feb-17 04:30N 53°29' E 006°50'10 6.4
2018-Feb-17 02:57N 53°35' E 006°37'231 7.9
2018-Feb-15 21:45N 53°33' E 000°07'311.7
2018-Feb-15 21:30N 53°35' E 000°03'612.1
2018-Feb-15 21:00N 53°37' W 000°07'611.9
2018-Feb-15 20:30N 53°42' W 000°13'510.3
2018-Feb-15 20:00N 53°43' W 000°22'610.7
2018-Feb-15 19:29N 53°41' W 000°31'  
Track history (hours):
 
Tides and Currents Weather Stations Pressure Air Temp Water Temp Dewpoint Dewpoint Depression Visibility Wind Speed Wind Dir Waves Ship Positions

Sea Thames

Last reported at 2018-Feb-25 11:48 UTC. Time now 2018-Feb-25 12:02 UTC.
Position N 51°30' E 000°58'.

Length 87 m; draft 3.2 m.

Type: Ship. MMSI: 304933000.

Date/timePositionNaut miles runAvg speedWind from/ knotsBaromVisibWave heightAir tempDewpointWater temp
2018-Feb-25 11:48N 51°30' E 000°58'0 0.0
2018-Feb-25 05:49N 51°30' E 000°58'0 0.0
2018-Feb-25 05:19N 51°30' E 000°58'0 0.0
2018-Feb-25 04:54N 51°30' E 000°58'0 0.0
2018-Feb-25 04:24N 51°30' E 000°58'0 0.0
2018-Feb-25 03:10N 51°30' E 000°58'0 0.1
2018-Feb-25 02:58N 51°30' E 000°58'0 0.0
2018-Feb-25 02:25N 51°30' E 000°58'0 0.0
2018-Feb-25 01:19N 51°30' E 000°58'0 0.1
2018-Feb-25 00:52N 51°30' E 000°58'0 0.0
2018-Feb-25 00:23N 51°30' E 000°58'0 0.1
2018-Feb-24 22:33N 51°30' E 000°58'0 0.1
2018-Feb-24 19:18N 51°30' E 000°58'0 0.1
2018-Feb-24 18:54N 51°30' E 000°58'0 0.0
2018-Feb-24 18:16N 51°30' E 000°58'0 0.0
2018-Feb-24 17:49N 51°30' E 000°58'0 0.0
2018-Feb-24 17:22N 51°30' E 000°58'0 0.0
2018-Feb-24 16:58N 51°30' E 000°58'0 0.0
2018-Feb-24 16:29N 51°30' E 000°58'0 0.0
2018-Feb-24 15:59N 51°30' E 000°58'0 0.0
2018-Feb-24 15:29N 51°30' E 000°58'0 0.0
2018-Feb-24 14:54N 51°30' E 000°58'0 0.0
2018-Feb-24 14:27N 51°30' E 000°58'0 0.0
2018-Feb-24 13:43N 51°30' E 000°58'0 0.1
2018-Feb-24 13:23N 51°30' E 000°58'0 0.1
2018-Feb-24 12:54N 51°30' E 000°58'0 0.0
2018-Feb-24 12:28N 51°30' E 000°58'0 0.0
2018-Feb-24 11:31N 51°30' E 000°58'0 0.1
2018-Feb-24 10:08N 51°30' E 000°58'0 0.0
2018-Feb-24 09:46N 51°30' E 000°58'0 0.0
2018-Feb-24 09:22N 51°30' E 000°58'0 0.2
2018-Feb-24 09:00N 51°30' E 000°58'2 3.3
2018-Feb-24 08:30N 51°29' E 001°00'4 7.3
2018-Feb-24 07:59N 51°30' E 001°06'4 7.4
2018-Feb-24 07:30N 51°29' E 001°12'4 8.1
2018-Feb-24 07:00N 51°29' E 001°18'4 8.5
2018-Feb-24 06:30N 51°28' E 001°25'4 8.3
2018-Feb-24 06:00N 51°25' E 001°30'5 9.2
2018-Feb-24 05:30N 51°21' E 001°35'4 9.0
2018-Feb-24 05:00N 51°17' E 001°37'4 8.2
2018-Feb-24 04:30N 51°13' E 001°38'4 7.3
2018-Feb-24 04:00N 51°10' E 001°40'3 6.7
2018-Feb-24 03:30N 51°06' E 001°40'3 6.0
2018-Feb-24 03:00N 51°04' E 001°38'3 6.1
2018-Feb-24 02:28N 51°01' E 001°36'5 5.6
2018-Feb-24 01:33N 50°56' E 001°32'0 5.9
2018-Feb-24 01:30N 50°56' E 001°31'3 5.1
2018-Feb-24 00:49N 50°53' E 001°29'36 0.8
2018-Feb-22 04:32N 50°34' E 000°40'1 8.0
2018-Feb-22 04:24N 50°35' E 000°41'3 8.7
2018-Feb-22 04:01N 50°37' E 000°45'4 8.4
2018-Feb-22 03:30N 50°40' E 000°50'4 8.1
2018-Feb-22 03:00N 50°43' E 000°56'17 8.1
2018-Feb-22 00:51N 50°54' E 001°17'4 9.7
2018-Feb-22 00:27N 50°57' E 001°21'510.9
2018-Feb-22 00:00N 51°00' E 001°26'611.6
2018-Feb-21 23:31N 51°04' E 001°33'612.2
2018-Feb-21 23:00N 51°09' E 001°39'611.5
2018-Feb-21 22:30N 51°13' E 001°45'510.9
2018-Feb-21 22:00N 51°18' E 001°50'510.1
2018-Feb-21 21:31N 51°22' E 001°54'5 9.4
2018-Feb-21 21:00N 51°26' E 001°58'5 8.9
2018-Feb-21 20:29N 51°30' E 002°03'178 8.4
2018-Feb-20 23:20N 53°39' E 005°23'3 7.8
2018-Feb-20 22:59N 53°40' E 005°27'50 7.1
2018-Feb-20 16:00N 53°29' E 006°49'610.9
2018-Feb-20 15:29N 53°25' E 006°56'5 9.9
2018-Feb-20 15:01N 53°21' E 006°59'4 7.2
2018-Feb-20 14:30N 53°20' E 007°05'4 7.6
2018-Feb-20 14:00N 53°20' E 007°11'0 0.5
2018-Feb-20 13:26N 53°20' E 007°11'0 0.7
2018-Feb-20 13:00N 53°20' E 007°12'0 0.0
2018-Feb-20 11:48N 53°20' E 007°12'0 0.0
2018-Feb-20 10:44N 53°20' E 007°12'0 0.0
2018-Feb-20 10:26N 53°20' E 007°12'0 0.0
2018-Feb-20 07:51N 53°20' E 007°12'0 0.0
2018-Feb-20 07:29N 53°20' E 007°12'0 0.0
2018-Feb-20 05:44N 53°20' E 007°12'0 0.0
2018-Feb-20 04:49N 53°20' E 007°12'0 0.0
2018-Feb-20 03:52N 53°20' E 007°12'0 0.0
2018-Feb-20 01:57N 53°20' E 007°12'0 0.0
2018-Feb-20 00:50N 53°20' E 007°12'0 0.0
2018-Feb-20 00:24N 53°20' E 007°12'0 0.0
2018-Feb-19 23:50N 53°20' E 007°12'0 0.0
2018-Feb-19 23:20N 53°20' E 007°12'0 0.0
2018-Feb-19 19:43N 53°20' E 007°12'0 0.0
2018-Feb-19 19:13N 53°20' E 007°12'0 0.0
2018-Feb-19 17:31N 53°20' E 007°12'0 0.0
2018-Feb-19 17:18N 53°20' E 007°12'0 0.0
2018-Feb-19 17:00N 53°20' E 007°12'0 0.0
2018-Feb-19 15:36N 53°20' E 007°12'0 0.0
2018-Feb-19 15:30N 53°20' E 007°12'  
2018-Feb-17 07:50N 53°21' E 007°12'1 1.3
2018-Feb-17 06:57N 53°20' E 007°11'3 5.8
2018-Feb-17 06:30N 53°20' E 007°06'4 7.0
2018-Feb-17 06:00N 53°20' E 007°01'4 7.6
2018-Feb-17 05:30N 53°23' E 006°58'5 7.5
2018-Feb-17 04:54N 53°27' E 006°53'3 7.3
2018-Feb-17 04:30N 53°29' E 006°50'10 6.4
2018-Feb-17 02:57N 53°35' E 006°37'231 7.9
2018-Feb-15 21:45N 53°33' E 000°07'311.7
2018-Feb-15 21:30N 53°35' E 000°03'612.1
2018-Feb-15 21:00N 53°37' W 000°07'611.9
2018-Feb-15 20:30N 53°42' W 000°13'510.3
2018-Feb-15 20:00N 53°43' W 000°22'610.7
2018-Feb-15 19:29N 53°41' W 000°31'  

Dump ship's entire track history